createdAt,value
2022-08-23T00:02:02.608Z,15.02
2022-08-23T00:05:03.667Z,15.10
2022-08-23T00:07:29.807Z,14.63
2022-08-23T00:09:56.472Z,14.68
2022-08-23T00:12:25.420Z,14.64
2022-08-23T00:14:54.095Z,15.11
2022-08-23T00:17:33.661Z,14.72
2022-08-23T00:20:03.963Z,14.20
2022-08-23T00:22:30.679Z,14.32
2022-08-23T00:24:57.352Z,14.91
2022-08-23T00:27:24.249Z,14.90
2022-08-23T00:29:53.351Z,15.18
2022-08-23T00:32:22.042Z,14.99
2022-08-23T00:34:49.346Z,14.88
2022-08-23T00:37:16.646Z,14.83
2022-08-23T00:39:43.736Z,14.70
2022-08-23T00:42:42.087Z,15.04
2022-08-23T00:45:13.515Z,14.60
2022-08-23T00:47:40.908Z,14.89
2022-08-23T00:50:29.847Z,14.86
2022-08-23T00:53:01.573Z,14.74
2022-08-23T00:55:29.705Z,14.79
2022-08-23T00:57:57.294Z,14.62
2022-08-23T01:00:27.791Z,14.76
2022-08-23T01:02:55.027Z,14.22
2022-08-23T01:05:28.696Z,14.71
2022-08-23T01:07:59.223Z,14.62
2022-08-23T01:10:39.423Z,14.03
2022-08-23T01:13:15.188Z,13.68
2022-08-23T01:15:47.799Z,14.01
2022-08-23T01:18:17.834Z,13.48
2022-08-23T01:21:10.408Z,14.13
2022-08-23T01:23:53.573Z,13.99
2022-08-23T01:26:22.707Z,13.35
2022-08-23T01:28:51.204Z,13.87
2022-08-23T01:31:20.232Z,14.29
2022-08-23T01:33:58.059Z,14.13
2022-08-23T01:36:25.207Z,14.08
2022-08-23T01:38:52.596Z,13.57
2022-08-23T01:41:20.358Z,13.76
2022-08-23T01:43:47.421Z,13.68
2022-08-23T01:46:20.407Z,13.18
2022-08-23T01:48:49.268Z,13.90
2022-08-23T01:51:18.843Z,13.60
2022-08-23T01:53:54.605Z,13.36
2022-08-23T01:56:39.241Z,10.41
2022-08-23T01:59:11.792Z,11.12
2022-08-23T02:01:52.266Z,12.39
2022-08-23T02:04:20.267Z,9.67
2022-08-23T02:06:50.597Z,13.49
2022-08-23T02:09:25.517Z,8.53
2022-08-23T02:11:56.680Z,12.36
2022-08-23T02:17:20.855Z,13.12
2022-08-23T02:19:50.559Z,12.40
2022-08-23T02:22:17.730Z,13.21
2022-08-23T02:24:46.913Z,10.88
2022-08-23T02:27:15.839Z,11.90
2022-08-23T02:29:45.326Z,13.39
2022-08-23T02:32:18.040Z,12.94
2022-08-23T02:34:51.127Z,13.02
2022-08-23T02:37:35.190Z,13.15
2022-08-23T02:40:02.326Z,12.69
2022-08-23T02:42:29.421Z,12.98
2022-08-23T02:44:56.283Z,12.85
2022-08-23T02:47:22.969Z,13.01
2022-08-23T02:50:09.678Z,12.63
2022-08-23T02:52:36.429Z,12.51
2022-08-23T02:55:04.437Z,12.68
2022-08-23T02:57:31.595Z,12.81
2022-08-23T03:00:00.494Z,12.77
2022-08-23T03:02:27.926Z,12.97
2022-08-23T03:04:54.681Z,12.50
2022-08-23T03:07:21.347Z,12.44
2022-08-23T03:09:47.983Z,12.70
2022-08-23T03:12:14.775Z,12.77
2022-08-23T03:14:47.560Z,12.91
2022-08-23T03:17:14.215Z,12.99
2022-08-23T03:19:40.902Z,12.98
2022-08-23T03:22:08.061Z,12.88
2022-08-23T03:24:34.698Z,12.70
2022-08-23T03:27:01.739Z,12.98
2022-08-23T03:29:28.831Z,12.87
2022-08-23T03:32:04.280Z,13.03
2022-08-23T03:34:35.222Z,12.49
2022-08-23T03:37:02.202Z,12.64
2022-08-23T03:39:28.933Z,12.51
2022-08-23T03:41:57.878Z,12.88
2022-08-23T03:44:25.324Z,12.89
2022-08-23T03:46:52.000Z,12.33
2022-08-23T03:49:18.600Z,12.63
2022-08-23T03:51:51.551Z,12.55
2022-08-23T03:54:18.395Z,12.82
2022-08-23T03:57:08.784Z,12.70
2022-08-23T03:59:40.162Z,12.46
2022-08-23T04:02:10.310Z,12.29
2022-08-23T04:04:36.993Z,12.08
2022-08-23T04:07:27.603Z,12.12
2022-08-23T04:09:57.491Z,12.23
2022-08-23T04:12:27.249Z,12.22
2022-08-23T04:14:54.088Z,12.01
2022-08-23T04:17:22.114Z,11.99
2022-08-23T04:19:49.588Z,11.90
2022-08-23T04:22:18.760Z,12.01
2022-08-23T04:24:46.513Z,12.35
2022-08-23T04:27:13.487Z,12.36
2022-08-23T04:29:40.831Z,11.96
2022-08-23T04:32:11.622Z,12.19
2022-08-23T04:34:39.776Z,12.00
2022-08-23T04:37:09.414Z,11.99
2022-08-23T04:39:38.118Z,11.69
2022-08-23T04:42:14.280Z,11.76
2022-08-23T04:44:41.617Z,12.17
2022-08-23T04:47:08.357Z,11.97
2022-08-23T04:49:35.447Z,12.36
2022-08-23T04:52:05.584Z,12.37
2022-08-23T04:54:32.539Z,12.52
2022-08-23T04:57:28.465Z,12.02
2022-08-23T04:59:56.070Z,11.77
2022-08-23T05:02:22.948Z,11.79
2022-08-23T05:04:50.881Z,11.75
2022-08-23T05:07:17.520Z,11.98
2022-08-23T05:09:44.282Z,11.94
2022-08-23T05:12:11.984Z,11.95
2022-08-23T05:14:38.948Z,12.14
2022-08-23T05:17:05.635Z,12.32
2022-08-23T05:19:35.711Z,12.31
2022-08-23T05:22:06.246Z,12.45
2022-08-23T05:24:54.786Z,12.60
2022-08-23T05:27:21.699Z,12.67
2022-08-23T05:29:48.374Z,12.42
2022-08-23T05:32:15.650Z,12.86
2022-08-23T05:34:42.348Z,13.05
2022-08-23T05:37:10.556Z,13.69
2022-08-23T05:39:39.971Z,13.65
2022-08-23T05:42:11.574Z,14.14
2022-08-23T05:44:38.536Z,13.86
2022-08-23T05:47:11.135Z,14.15
2022-08-23T05:49:46.036Z,14.21
2022-08-23T05:52:13.831Z,14.51
2022-08-23T05:54:42.721Z,14.72
2022-08-23T05:57:24.500Z,14.76
2022-08-23T05:59:51.229Z,14.62
2022-08-23T06:02:17.810Z,14.92
2022-08-23T06:04:44.758Z,14.81
2022-08-23T06:07:11.410Z,15.10
2022-08-23T06:09:39.113Z,15.05
2022-08-23T06:12:06.033Z,15.57
2022-08-23T06:14:32.772Z,14.92
2022-08-23T06:16:59.679Z,15.42
2022-08-23T06:19:27.825Z,15.51
2022-08-23T06:22:17.920Z,15.43
2022-08-23T06:24:44.773Z,15.80
2022-08-23T06:27:28.126Z,16.16
2022-08-23T06:29:54.916Z,15.27
2022-08-23T06:32:27.150Z,16.36
2022-08-23T06:35:29.966Z,16.54
2022-08-23T06:38:07.423Z,16.63
2022-08-23T06:41:04.300Z,17.01
2022-08-23T06:43:40.914Z,16.68
2022-08-23T06:46:25.321Z,17.60
2022-08-23T06:48:56.350Z,17.71
2022-08-23T06:51:36.319Z,17.26
2022-08-23T06:54:17.948Z,17.58
2022-08-23T06:56:49.703Z,17.73
2022-08-23T06:59:22.282Z,17.77
2022-08-23T07:01:55.422Z,17.91
2022-08-23T07:04:35.695Z,18.11
2022-08-23T07:07:21.351Z,18.13
2022-08-23T07:09:50.217Z,17.85
2022-08-23T07:12:17.854Z,17.82
2022-08-23T07:14:44.727Z,17.70
2022-08-23T07:17:14.126Z,17.81
2022-08-23T07:19:41.251Z,17.19
2022-08-23T07:22:08.051Z,17.52
2022-08-23T07:24:34.979Z,17.73
2022-08-23T07:27:05.001Z,17.59
2022-08-23T07:29:32.661Z,17.55
2022-08-23T07:31:59.436Z,18.09
2022-08-23T07:34:26.368Z,18.09
2022-08-23T07:36:54.179Z,17.86
2022-08-23T07:39:22.576Z,17.85
2022-08-23T07:41:50.538Z,17.96
2022-08-23T07:44:18.942Z,18.12
2022-08-23T07:46:50.143Z,17.95
2022-08-23T07:49:17.559Z,18.20
2022-08-23T07:51:48.895Z,18.65
2022-08-23T07:54:17.784Z,18.60
2022-08-23T07:56:58.787Z,18.84
2022-08-23T07:59:51.992Z,18.87
2022-08-23T08:02:18.736Z,18.87
2022-08-23T08:04:45.487Z,19.09
2022-08-23T08:07:21.138Z,19.07
2022-08-23T08:09:55.960Z,18.99
2022-08-23T08:12:24.313Z,18.76
2022-08-23T08:14:53.974Z,18.58
2022-08-23T08:17:29.995Z,18.25
2022-08-23T08:20:11.620Z,18.88
2022-08-23T08:22:38.362Z,18.83
2022-08-23T08:25:09.639Z,18.77
2022-08-23T08:27:37.124Z,18.90
2022-08-23T08:30:05.675Z,19.35
2022-08-23T08:32:32.994Z,19.20
2022-08-23T08:34:59.698Z,19.57
2022-08-23T08:37:27.335Z,19.29
2022-08-23T08:39:54.818Z,19.27
2022-08-23T08:42:33.142Z,19.53
2022-08-23T08:45:19.063Z,19.40
2022-08-23T08:47:57.793Z,19.80
2022-08-23T08:50:36.400Z,19.89
2022-08-23T08:53:12.447Z,19.37
2022-08-23T08:56:32.159Z,19.98
2022-08-23T08:59:23.657Z,20.16
2022-08-23T09:01:51.270Z,20.59
2022-08-23T09:04:25.533Z,20.42
2022-08-23T09:07:19.320Z,20.39
2022-08-23T09:10:07.412Z,20.45
2022-08-23T09:12:37.048Z,20.86
2022-08-23T09:15:21.613Z,21.04
2022-08-23T09:17:51.992Z,21.06
2022-08-23T09:20:20.491Z,20.58
2022-08-23T09:22:56.755Z,20.76
2022-08-23T09:25:28.643Z,20.60
2022-08-23T09:28:07.138Z,20.56
2022-08-23T09:30:49.856Z,21.09
2022-08-23T09:33:26.506Z,20.73
2022-08-23T09:36:10.556Z,21.19
2022-08-23T09:38:39.607Z,21.00
2022-08-23T09:41:19.950Z,21.49
2022-08-23T09:43:50.629Z,21.46
2022-08-23T09:46:27.887Z,21.43
2022-08-23T09:48:55.179Z,21.75
2022-08-23T09:51:26.983Z,22.55
2022-08-23T09:54:34.194Z,22.23
2022-08-23T09:57:05.798Z,22.25
2022-08-23T09:59:42.933Z,22.30
2022-08-23T10:02:34.259Z,22.50
2022-08-23T10:05:36.655Z,22.84
2022-08-23T10:08:08.789Z,22.59
2022-08-23T10:10:50.865Z,22.95
2022-08-23T10:13:22.646Z,22.90
2022-08-23T10:16:02.344Z,23.03
2022-08-23T10:18:55.133Z,23.18
2022-08-23T10:21:29.894Z,22.81
2022-08-23T10:24:11.432Z,22.90
2022-08-23T10:26:59.445Z,22.33
2022-08-23T10:29:38.094Z,22.50
2022-08-23T10:32:24.191Z,22.96
2022-08-23T10:35:00.751Z,22.83
2022-08-23T10:37:30.445Z,23.25
2022-08-23T10:40:20.360Z,23.17
2022-08-23T10:43:22.499Z,23.25
2022-08-23T10:45:50.242Z,23.00
2022-08-23T10:48:30.788Z,22.62
2022-08-23T10:51:05.593Z,22.27
2022-08-23T10:53:43.578Z,22.12
2022-08-23T10:56:10.339Z,22.29
2022-08-23T10:58:47.520Z,23.04
2022-08-23T11:01:21.381Z,23.06
2022-08-23T11:04:04.894Z,23.21
2022-08-23T11:06:49.367Z,23.31
2022-08-23T11:09:19.177Z,24.21
2022-08-23T11:11:49.788Z,23.81
2022-08-23T11:14:42.676Z,25.00
2022-08-23T11:17:23.545Z,25.37
2022-08-23T11:19:56.679Z,24.51
2022-08-23T11:22:54.276Z,24.63
2022-08-23T11:25:21.040Z,24.99
2022-08-23T11:27:48.389Z,23.37
2022-08-23T11:30:31.654Z,24.34
2022-08-23T11:33:17.894Z,24.53
2022-08-23T11:35:49.891Z,24.54
2022-08-23T11:38:37.980Z,24.42
2022-08-23T11:41:19.919Z,23.98
2022-08-23T11:43:48.494Z,24.11
2022-08-23T11:46:27.450Z,24.05
2022-08-23T11:49:12.267Z,24.24
2022-08-23T11:51:59.627Z,24.12
2022-08-23T11:54:50.568Z,24.30
2022-08-23T11:57:34.675Z,21.56
2022-08-23T12:00:29.199Z,24.16
2022-08-23T12:03:24.370Z,24.73
2022-08-23T12:06:14.324Z,24.35
2022-08-23T12:08:58.928Z,22.97
2022-08-23T12:11:25.943Z,24.62
2022-08-23T12:13:57.797Z,24.49
2022-08-23T12:16:28.893Z,24.81
2022-08-23T12:19:09.777Z,21.62
2022-08-23T12:21:46.279Z,25.34
2022-08-23T12:24:40.297Z,24.89
2022-08-23T12:27:38.235Z,25.24
2022-08-23T12:30:10.556Z,25.01
2022-08-23T12:33:25.259Z,25.31
2022-08-23T12:36:30.112Z,26.05
2022-08-23T12:39:36.404Z,25.39
2022-08-23T12:42:25.819Z,25.81
2022-08-23T12:45:13.175Z,25.55
2022-08-23T12:47:43.114Z,25.77
2022-08-23T12:50:16.063Z,26.09
2022-08-23T12:52:42.817Z,25.72
2022-08-23T12:55:18.809Z,25.52
2022-08-23T12:57:55.575Z,26.24
2022-08-23T13:00:31.195Z,26.24
2022-08-23T13:03:03.941Z,25.40
2022-08-23T13:06:02.011Z,24.97
2022-08-23T13:08:41.166Z,25.23
2022-08-23T13:11:09.650Z,24.91
2022-08-23T13:13:42.894Z,24.83
2022-08-23T13:16:27.605Z,25.10
2022-08-23T13:18:55.751Z,24.74
2022-08-23T13:21:22.270Z,25.26
2022-08-23T13:24:00.853Z,25.52
2022-08-23T13:26:45.006Z,25.65
2022-08-23T13:29:17.876Z,25.97
2022-08-23T13:32:03.297Z,25.73
2022-08-23T13:34:48.822Z,25.68
2022-08-23T13:37:26.338Z,25.65
2022-08-23T13:40:00.033Z,25.12
2022-08-23T13:42:32.368Z,25.05
2022-08-23T13:45:07.733Z,24.91
2022-08-23T13:47:37.152Z,25.13
2022-08-23T13:50:11.700Z,25.24
2022-08-23T13:52:56.724Z,25.49
2022-08-23T13:55:27.906Z,25.15
2022-08-23T13:57:56.891Z,25.46
2022-08-23T14:00:23.882Z,24.80
2022-08-23T14:02:50.831Z,25.21
2022-08-23T14:05:20.630Z,25.51
2022-08-23T14:07:48.929Z,25.49
2022-08-23T14:10:15.747Z,25.40
2022-08-23T14:12:47.196Z,25.39
2022-08-23T14:15:14.638Z,25.99
2022-08-23T14:17:47.001Z,25.51
2022-08-23T14:23:08.725Z,25.25
2022-08-23T14:25:39.060Z,25.45
2022-08-23T14:28:05.704Z,24.09
2022-08-23T14:30:34.630Z,25.08
2022-08-23T14:33:01.904Z,24.74
2022-08-23T14:35:28.853Z,25.30
2022-08-23T14:38:04.549Z,24.94
2022-08-23T14:40:31.997Z,24.92
2022-08-23T14:42:58.851Z,25.10
2022-08-23T14:45:25.748Z,24.46
2022-08-23T14:47:52.390Z,23.09
2022-08-23T14:50:19.073Z,24.72
2022-08-23T14:52:46.799Z,24.99
2022-08-23T14:55:14.752Z,24.86
2022-08-23T14:57:41.579Z,24.59
2022-08-23T15:00:09.508Z,24.48
2022-08-23T15:02:36.209Z,24.30
2022-08-23T15:05:03.537Z,24.14
2022-08-23T15:07:30.143Z,24.64
2022-08-23T15:09:56.907Z,24.53
2022-08-23T15:15:15.138Z,24.90
2022-08-23T15:17:51.939Z,24.87
2022-08-23T15:20:21.143Z,25.12
2022-08-23T15:22:55.811Z,24.61
2022-08-23T15:25:25.320Z,23.87
2022-08-23T15:27:52.512Z,24.73
2022-08-23T15:30:19.532Z,24.53
2022-08-23T15:32:56.655Z,23.96
2022-08-23T15:35:28.282Z,23.85
2022-08-23T15:37:59.085Z,23.63
2022-08-23T15:40:28.612Z,24.37
2022-08-23T15:42:58.805Z,22.38
2022-08-23T15:45:25.782Z,24.20
2022-08-23T15:47:57.672Z,24.11
2022-08-23T15:50:34.527Z,24.02
2022-08-23T15:53:01.405Z,24.38
2022-08-23T15:55:31.136Z,24.23
2022-08-23T15:58:03.086Z,24.39
2022-08-23T16:00:29.803Z,23.20
2022-08-23T16:03:20.564Z,23.90
2022-08-23T16:05:50.305Z,22.97
2022-08-23T16:08:29.566Z,24.33
2022-08-23T16:11:05.928Z,19.85
2022-08-23T16:13:32.556Z,23.79
2022-08-23T16:15:59.148Z,23.37
2022-08-23T16:18:28.437Z,22.24
2022-08-23T16:20:55.040Z,23.03
2022-08-23T16:23:34.757Z,19.65
2022-08-23T16:26:10.150Z,20.10
2022-08-23T16:28:54.361Z,21.91
2022-08-23T16:31:38.262Z,23.18
2022-08-23T16:34:19.860Z,21.91
2022-08-23T16:37:06.012Z,22.72
2022-08-23T16:39:34.222Z,20.79
2022-08-23T16:42:04.829Z,22.36
2022-08-23T16:44:33.158Z,23.04
2022-08-23T16:47:08.103Z,23.27
2022-08-23T16:49:35.244Z,23.10
2022-08-23T16:52:02.245Z,21.25
2022-08-23T16:54:29.129Z,22.79
2022-08-23T16:56:56.058Z,22.75
2022-08-23T16:59:22.894Z,22.36
2022-08-23T17:01:59.818Z,22.76
2022-08-23T17:04:30.323Z,22.16
2022-08-23T17:06:59.507Z,21.69
2022-08-23T17:09:28.295Z,22.78
2022-08-23T17:11:55.655Z,22.28
2022-08-23T17:14:22.211Z,22.21
2022-08-23T17:16:49.092Z,22.02
2022-08-23T17:19:15.839Z,22.29
2022-08-23T17:21:43.136Z,22.70
2022-08-23T17:24:09.897Z,21.90
2022-08-23T17:26:36.762Z,22.56
2022-08-23T17:29:06.295Z,22.41
2022-08-23T17:31:33.368Z,20.69
2022-08-23T17:34:00.405Z,19.59
2022-08-23T17:36:41.340Z,21.38
2022-08-23T17:39:11.562Z,21.31
2022-08-23T17:41:44.962Z,20.06
2022-08-23T17:44:12.892Z,21.32
2022-08-23T17:46:47.541Z,17.48
2022-08-23T17:49:16.382Z,17.53
2022-08-23T17:51:46.361Z,20.08
2022-08-23T17:54:23.752Z,20.40
2022-08-23T17:56:51.492Z,20.00
2022-08-23T17:59:22.346Z,17.67
2022-08-23T18:01:49.423Z,18.32
2022-08-23T18:04:16.212Z,20.88
2022-08-23T18:06:43.104Z,20.66
2022-08-23T18:09:10.527Z,16.56
2022-08-23T18:11:37.844Z,21.30
2022-08-23T18:14:05.394Z,19.55
2022-08-23T18:16:35.646Z,19.23
2022-08-23T18:19:04.907Z,18.30
2022-08-23T18:22:02.186Z,19.16
2022-08-23T18:24:31.889Z,20.62
2022-08-23T18:26:59.013Z,20.49
2022-08-23T18:29:25.975Z,20.34
2022-08-23T18:31:54.729Z,20.01
2022-08-23T18:34:22.978Z,20.06
2022-08-23T18:36:49.960Z,20.10
2022-08-23T18:39:17.282Z,20.10
2022-08-23T18:42:00.370Z,19.63
2022-08-23T18:44:27.059Z,19.78
2022-08-23T18:46:53.736Z,19.73
2022-08-23T18:49:20.372Z,19.44
2022-08-23T18:51:47.015Z,19.43
2022-08-23T18:54:13.687Z,19.26
2022-08-23T18:56:40.450Z,19.23
2022-08-23T18:59:07.105Z,19.15
2022-08-23T19:01:37.312Z,19.46
2022-08-23T19:04:06.308Z,19.20
2022-08-23T19:06:33.523Z,19.14
2022-08-23T19:09:00.256Z,19.04
2022-08-23T19:11:29.798Z,19.28
2022-08-23T19:13:58.106Z,19.03
2022-08-23T19:16:29.222Z,19.11
2022-08-23T19:18:59.436Z,18.93
2022-08-23T19:21:26.866Z,19.20
2022-08-23T19:23:55.284Z,17.61
2022-08-23T19:26:27.753Z,18.53
2022-08-23T19:28:54.582Z,18.92
2022-08-23T19:31:21.527Z,18.87
2022-08-23T19:33:48.522Z,19.01
2022-08-23T19:36:29.615Z,18.08
2022-08-23T19:39:02.302Z,17.72
2022-08-23T19:41:31.639Z,17.59
2022-08-23T19:44:00.205Z,18.50
2022-08-23T19:46:34.635Z,16.22
2022-08-23T19:49:01.451Z,18.16
2022-08-23T19:51:28.206Z,16.24
2022-08-23T19:53:55.385Z,18.96
2022-08-23T19:56:22.158Z,18.64
2022-08-23T19:58:49.086Z,17.79
2022-08-23T20:01:15.915Z,18.03
2022-08-23T20:03:42.736Z,17.11
2022-08-23T20:06:10.408Z,17.15
2022-08-23T20:08:39.216Z,17.64
2022-08-23T20:11:06.550Z,17.68
2022-08-23T20:13:33.394Z,17.33
2022-08-23T20:16:00.067Z,16.90
2022-08-23T20:18:27.108Z,17.13
2022-08-23T20:20:53.675Z,17.19
2022-08-23T20:23:20.663Z,16.57
2022-08-23T20:25:47.243Z,17.23
2022-08-23T20:28:13.991Z,17.30
2022-08-23T20:30:40.602Z,17.22
2022-08-23T20:33:08.098Z,16.96
2022-08-23T20:35:34.746Z,16.82
2022-08-23T20:38:01.609Z,17.00
2022-08-23T20:40:28.380Z,16.39
2022-08-23T20:42:55.370Z,16.99
2022-08-23T20:45:22.303Z,16.15
2022-08-23T20:47:48.920Z,16.81
2022-08-23T20:50:15.680Z,16.77
2022-08-23T20:52:42.563Z,16.60
2022-08-23T20:55:10.936Z,17.08
2022-08-23T20:57:38.745Z,16.45
2022-08-23T21:00:07.000Z,17.01
2022-08-23T21:02:33.714Z,16.88
2022-08-23T21:05:00.418Z,16.96
2022-08-23T21:07:29.423Z,16.81
2022-08-23T21:09:57.588Z,16.79
2022-08-23T21:12:24.199Z,16.97
2022-08-23T21:14:50.853Z,17.11
2022-08-23T21:17:17.509Z,17.04
2022-08-23T21:19:45.357Z,16.61
2022-08-23T21:22:12.176Z,16.93
2022-08-23T21:24:38.739Z,17.26
2022-08-23T21:27:08.796Z,17.19
2022-08-23T21:29:37.331Z,17.38
2022-08-23T21:32:04.603Z,17.40
2022-08-23T21:34:31.343Z,17.11
2022-08-23T21:36:58.159Z,17.18
2022-08-23T21:39:24.809Z,17.05
2022-08-23T21:41:51.454Z,17.23
2022-08-23T21:44:20.345Z,17.37
2022-08-23T21:46:47.977Z,17.07
2022-08-23T21:49:15.306Z,17.08
2022-08-23T21:51:43.252Z,17.27
2022-08-23T21:54:12.768Z,17.00
2022-08-23T21:56:46.267Z,16.78
2022-08-23T21:59:23.253Z,16.68
2022-08-23T22:01:49.964Z,16.59
2022-08-23T22:04:19.228Z,16.19
2022-08-23T22:06:48.825Z,16.71
2022-08-23T22:09:20.092Z,15.45
2022-08-23T22:11:52.564Z,16.47
2022-08-23T22:14:23.081Z,16.75
2022-08-23T22:17:17.512Z,16.35
2022-08-23T22:19:51.650Z,16.30
2022-08-23T22:22:18.369Z,15.83
2022-08-23T22:24:52.393Z,15.88
2022-08-23T22:27:19.117Z,15.85
2022-08-23T22:29:46.628Z,16.28
2022-08-23T22:32:13.400Z,15.98
2022-08-23T22:34:40.546Z,15.63
2022-08-23T22:37:15.001Z,15.63
2022-08-23T22:39:45.112Z,15.74
2022-08-23T22:42:12.243Z,14.29
2022-08-23T22:44:39.032Z,13.82
2022-08-23T22:47:05.928Z,15.83
2022-08-23T22:49:32.742Z,15.93
2022-08-23T22:51:59.357Z,15.57
2022-08-23T22:54:27.206Z,15.61
2022-08-23T22:56:56.775Z,15.44
2022-08-23T22:59:27.597Z,14.93
2022-08-23T23:01:57.479Z,15.70
2022-08-23T23:04:25.478Z,15.74
2022-08-23T23:06:57.080Z,15.67
2022-08-23T23:09:26.665Z,14.70
2022-08-23T23:11:54.280Z,15.60
2022-08-23T23:14:24.206Z,15.38
2022-08-23T23:16:51.036Z,15.54
2022-08-23T23:19:17.959Z,15.48
2022-08-23T23:21:52.840Z,14.33
2022-08-23T23:24:31.216Z,14.83
2022-08-23T23:26:58.824Z,15.70
2022-08-23T23:29:28.390Z,15.62
2022-08-23T23:31:58.247Z,15.42
2022-08-23T23:34:28.503Z,15.49
2022-08-23T23:36:58.764Z,15.60
2022-08-23T23:39:26.882Z,15.26
2022-08-23T23:41:54.283Z,15.05
2022-08-23T23:44:29.951Z,15.00
2022-08-23T23:46:59.607Z,14.71
2022-08-23T23:49:32.562Z,15.09
2022-08-23T23:52:05.126Z,14.85
2022-08-23T23:54:32.528Z,15.20
2022-08-23T23:56:59.205Z,14.85
2022-08-23T23:59:26.170Z,14.87
